Time;durP1;ratioP1;P1;durP2;ratioP2;P2;SDS_P1;SDS_P2;PMS_P1;PMS_P2;Temp;Humidity;BMP_temperature;BMP_pressure;BME280_temperature;BME280_humidity;BME280_pressure;Samples;Min_cycle;Max_cycle;Signal;HPM_P1;HPM_P2
2021/09/05 00:00:06;;;;;;;0.70;0.70;;;5.10;99.90;;;;;;5090733;28;20208;-71
2021/09/05 00:02:32;;;;;;;0.90;0.90;;;5.10;99.90;;;;;;5073297;28;20346;-71
2021/09/05 00:04:58;;;;;;;0.70;0.70;;;5.10;99.90;;;;;;5089927;28;20694;-72
2021/09/05 00:07:23;;;;;;;0.70;0.70;;;5.10;99.90;;;;;;5072544;28;20215;-72
2021/09/05 00:09:49;;;;;;;0.70;0.70;;;5.10;99.90;;;;;;5073602;28;20207;-72
2021/09/05 00:12:15;;;;;;;0.60;0.60;;;5.20;99.90;;;;;;5092003;28;20296;-71
2021/09/05 00:14:40;;;;;;;0.68;0.68;;;5.20;99.90;;;;;;5091871;28;20216;-71
2021/09/05 00:17:06;;;;;;;0.70;0.70;;;5.20;99.90;;;;;;5090686;28;20701;-72
2021/09/05 00:19:32;;;;;;;0.85;0.85;;;5.20;99.90;;;;;;5085088;28;20207;-71
2021/09/05 00:21:57;;;;;;;0.73;0.73;;;5.20;99.90;;;;;;5090375;28;20207;-72
2021/09/05 00:24:23;;;;;;;0.60;0.60;;;5.30;99.90;;;;;;5090284;28;20318;-72
2021/09/05 00:26:49;;;;;;;0.70;0.70;;;5.30;99.90;;;;;;5090099;28;20247;-72
2021/09/05 00:29:15;;;;;;;0.90;0.90;;;5.30;99.90;;;;;;5090535;28;20203;-72
2021/09/05 00:31:41;;;;;;;0.70;0.70;;;5.30;99.90;;;;;;5091528;28;20208;-71
2021/09/05 00:34:07;;;;;;;1.00;1.00;;;5.30;99.90;;;;;;5072417;28;20204;-71
2021/09/05 00:36:33;;;;;;;0.60;0.60;;;5.30;99.90;;;;;;5090286;28;20188;-72
2021/09/05 00:38:58;;;;;;;0.60;0.60;;;5.30;99.90;;;;;;5074302;28;20569;-71
2021/09/05 00:41:24;;;;;;;0.60;0.60;;;5.30;99.90;;;;;;5091267;28;20678;-71
2021/09/05 00:44:02;;;;;;;0.70;0.70;;;5.30;99.90;;;;;;5073495;28;20204;-71
2021/09/05 00:46:29;;;;;;;0.70;0.70;;;5.30;99.90;;;;;;5073657;28;20260;-72
2021/09/05 00:48:54;;;;;;;0.60;0.60;;;5.40;99.90;;;;;;5090393;28;20658;-71
2021/09/05 00:51:29;;;;;;;0.60;0.60;;;5.40;99.90;;;;;;5090277;28;20208;-72
2021/09/05 00:53:55;;;;;;;0.70;0.70;;;5.50;99.90;;;;;;5090526;28;20207;-71
2021/09/05 00:56:21;;;;;;;0.80;0.80;;;5.50;99.90;;;;;;5073287;28;20204;-72
2021/09/05 00:58:46;;;;;;;0.70;0.70;;;5.60;99.90;;;;;;5090543;28;20289;-71
2021/09/05 01:01:13;;;;;;;0.60;0.60;;;5.60;99.90;;;;;;5073207;28;20208;-72
2021/09/05 01:03:40;;;;;;;0.60;0.60;;;5.70;99.90;;;;;;5085257;28;20284;-73
2021/09/05 01:06:05;;;;;;;0.60;0.60;;;5.80;99.90;;;;;;5096438;28;20294;-72
2021/09/05 01:08:31;;;;;;;0.63;0.63;;;5.90;99.90;;;;;;5073091;28;20196;-72
2021/09/05 01:10:57;;;;;;;0.60;0.60;;;6.00;99.90;;;;;;5090051;28;20211;-72
2021/09/05 01:13:24;;;;;;;0.70;0.70;;;6.00;99.90;;;;;;5089810;28;20674;-72
2021/09/05 01:15:50;;;;;;;0.60;0.60;;;6.10;99.90;;;;;;5091080;28;20200;-72
2021/09/05 01:18:15;;;;;;;0.60;0.60;;;6.10;99.90;;;;;;5093635;28;20203;-72
2021/09/05 01:20:41;;;;;;;0.60;0.60;;;6.10;99.90;;;;;;5076233;28;20200;-72
2021/09/05 01:23:07;;;;;;;0.80;0.80;;;6.20;99.90;;;;;;5094998;28;20578;-72
2021/09/05 01:25:32;;;;;;;0.60;0.60;;;6.20;99.90;;;;;;5093374;28;20196;-72
2021/09/05 01:27:58;;;;;;;0.60;0.60;;;6.30;99.90;;;;;;5093498;28;20224;-72
2021/09/05 01:30:24;;;;;;;0.60;0.60;;;6.30;99.90;;;;;;5076425;28;20203;-74
2021/09/05 01:32:49;;;;;;;0.80;0.80;;;6.40;99.90;;;;;;5093697;28;20246;-72
2021/09/05 01:35:15;;;;;;;0.60;0.60;;;6.40;99.90;;;;;;5093587;28;20253;-72
2021/09/05 01:37:41;;;;;;;0.60;0.60;;;6.50;99.90;;;;;;5093754;28;20204;-72
2021/09/05 01:40:07;;;;;;;0.68;0.68;;;6.50;99.90;;;;;;5076212;28;20298;-71
2021/09/05 01:42:32;;;;;;;0.60;0.60;;;6.60;99.90;;;;;;5077284;28;20204;-72
2021/09/05 01:44:58;;;;;;;0.63;0.63;;;6.60;99.90;;;;;;5093290;28;20219;-72
2021/09/05 01:47:24;;;;;;;1.10;1.05;;;6.60;99.90;;;;;;5092913;28;20211;-71
2021/09/05 01:49:50;;;;;;;0.60;0.60;;;6.60;99.90;;;;;;5092846;28;20674;-72
2021/09/05 01:52:15;;;;;;;0.70;0.70;;;6.70;99.90;;;;;;5092951;28;20621;-71
2021/09/05 01:54:41;;;;;;;0.70;0.70;;;6.70;99.90;;;;;;5094131;28;20196;-71
2021/09/05 01:57:07;;;;;;;0.60;0.60;;;6.70;99.90;;;;;;5075783;28;20669;-72
2021/09/05 01:59:32;;;;;;;0.40;0.40;;;6.70;99.90;;;;;;5094010;28;20232;-72
2021/09/05 02:01:58;;;;;;;0.88;0.88;;;6.70;99.90;;;;;;5072619;28;20289;-72
2021/09/05 02:04:24;;;;;;;0.70;0.70;;;6.70;99.90;;;;;;5093185;28;20277;-72
2021/09/05 02:06:50;;;;;;;0.80;0.80;;;6.70;99.90;;;;;;5093179;28;20663;-72
2021/09/05 02:09:16;;;;;;;0.63;0.63;;;6.70;99.90;;;;;;5076025;28;20212;-72
2021/09/05 02:11:42;;;;;;;0.60;0.60;;;6.70;99.90;;;;;;5076433;28;20257;-71
2021/09/05 02:14:07;;;;;;;0.90;0.90;;;6.70;99.90;;;;;;5092801;28;20272;-72
2021/09/05 02:16:33;;;;;;;0.60;0.60;;;6.70;99.90;;;;;;5092625;28;20223;-72
2021/09/05 02:19:01;;;;;;;0.60;0.60;;;6.70;99.90;;;;;;5077172;28;20254;-71
2021/09/05 02:21:26;;;;;;;1.20;1.13;;;6.60;99.90;;;;;;5093801;28;20751;-72
2021/09/05 02:23:52;;;;;;;0.60;0.60;;;6.60;99.90;;;;;;5094389;28;20196;-72
2021/09/05 02:26:18;;;;;;;1.00;1.00;;;6.50;99.90;;;;;;5092385;28;20572;-72
2021/09/05 02:28:43;;;;;;;1.15;0.93;;;6.50;99.90;;;;;;5092292;28;20208;-71
2021/09/05 02:31:09;;;;;;;0.70;0.70;;;6.50;99.90;;;;;;5092218;28;20200;-71
2021/09/05 02:33:35;;;;;;;0.60;0.60;;;6.50;99.90;;;;;;5091877;28;20216;-72
2021/09/05 02:36:00;;;;;;;0.50;0.50;;;6.40;99.90;;;;;;5075129;28;20541;-71
2021/09/05 02:38:26;;;;;;;0.50;0.50;;;6.40;99.90;;;;;;5091932;28;20235;-72
2021/09/05 02:40:52;;;;;;;0.88;0.88;;;6.40;99.90;;;;;;5092006;28;20663;-71
2021/09/05 02:43:17;;;;;;;0.60;0.60;;;6.30;99.90;;;;;;5074792;28;20285;-73
2021/09/05 02:45:44;;;;;;;0.63;0.63;;;6.30;99.90;;;;;;5093235;28;20670;-71
2021/09/05 02:48:10;;;;;;;0.60;0.60;;;6.40;99.90;;;;;;5091810;28;20261;-71
2021/09/05 02:50:35;;;;;;;0.63;0.63;;;6.40;99.90;;;;;;5091714;28;20195;-71
2021/09/05 02:53:01;;;;;;;0.90;0.90;;;6.40;99.90;;;;;;5076132;28;20683;-71
2021/09/05 02:55:27;;;;;;;0.70;0.70;;;6.40;99.90;;;;;;5091639;28;20280;-72
2021/09/05 02:57:52;;;;;;;0.60;0.60;;;6.50;99.90;;;;;;5093200;28;20202;-70
2021/09/05 03:00:18;;;;;;;0.70;0.70;;;6.50;99.90;;;;;;5073344;28;20199;-72
2021/09/05 03:02:44;;;;;;;0.60;0.60;;;6.50;99.90;;;;;;5084356;28;20204;-72
2021/09/05 03:05:10;;;;;;;0.70;0.70;;;6.50;99.90;;;;;;5092948;28;20227;-72
2021/09/05 03:07:36;;;;;;;0.60;0.60;;;6.60;99.90;;;;;;5093067;28;20243;-71
2021/09/05 03:10:01;;;;;;;0.70;0.70;;;6.60;99.90;;;;;;5093345;28;20231;-71
2021/09/05 03:12:27;;;;;;;0.70;0.70;;;6.70;99.90;;;;;;5091228;28;20697;-72
2021/09/05 03:14:53;;;;;;;0.60;0.60;;;6.70;99.90;;;;;;5091681;28;20287;-72
2021/09/05 03:17:19;;;;;;;0.63;0.63;;;6.80;99.90;;;;;;5091253;28;20232;-72
2021/09/05 03:19:44;;;;;;;0.60;0.60;;;6.90;99.90;;;;;;5074306;28;20199;-72
2021/09/05 03:22:10;;;;;;;0.68;0.68;;;7.00;99.90;;;;;;5092709;28;20593;-72
2021/09/05 03:24:36;;;;;;;0.60;0.60;;;7.00;99.90;;;;;;5091005;28;20559;-72
2021/09/05 03:27:02;;;;;;;0.60;0.60;;;7.00;99.90;;;;;;5093073;28;20204;-72
2021/09/05 03:29:27;;;;;;;0.50;0.50;;;7.00;99.90;;;;;;5091354;28;20208;-71
2021/09/05 03:31:53;;;;;;;0.60;0.60;;;7.00;99.90;;;;;;5092965;28;20204;-72
2021/09/05 03:34:19;;;;;;;0.55;0.55;;;7.00;99.90;;;;;;5092812;28;20278;-72
2021/09/05 03:36:44;;;;;;;0.70;0.70;;;7.10;99.90;;;;;;5091403;28;20196;-72
2021/09/05 03:39:10;;;;;;;0.50;0.50;;;7.10;99.90;;;;;;5073544;28;20207;-71
2021/09/05 03:41:36;;;;;;;0.60;0.60;;;7.10;99.90;;;;;;5091224;28;20203;-71
2021/09/05 03:44:01;;;;;;;0.63;0.63;;;7.20;99.90;;;;;;5091302;28;20585;-71
2021/09/05 03:46:27;;;;;;;0.50;0.50;;;7.20;99.90;;;;;;5091096;28;20200;-71
2021/09/05 03:48:53;;;;;;;0.60;0.60;;;7.20;99.90;;;;;;5091069;28;20196;-71
2021/09/05 03:51:18;;;;;;;0.70;0.70;;;7.30;99.90;;;;;;5072836;28;20256;-72
2021/09/05 03:53:45;;;;;;;0.80;0.80;;;7.30;99.90;;;;;;5091044;28;20306;-71
2021/09/05 03:56:11;;;;;;;0.50;0.50;;;7.30;99.90;;;;;;5092202;28;20192;-73
2021/09/05 03:58:36;;;;;;;0.60;0.60;;;7.30;99.90;;;;;;5092077;28;20546;-72
2021/09/05 04:01:02;;;;;;;0.70;0.70;;;7.40;99.90;;;;;;5074498;28;20270;-72
2021/09/05 04:03:28;;;;;;;0.60;0.60;;;7.40;99.90;;;;;;5091175;28;20200;-72
2021/09/05 04:05:54;;;;;;;0.70;0.70;;;7.40;99.90;;;;;;5074940;28;20316;-71
2021/09/05 04:08:29;;;;;;;0.50;0.50;;;7.40;99.90;;;;;;5074766;28;20211;-72
2021/09/05 04:10:55;;;;;;;0.70;0.70;;;7.30;99.90;;;;;;5075098;28;20207;-71
2021/09/05 04:13:20;;;;;;;0.85;0.85;;;7.30;99.90;;;;;;5091804;28;20216;-72
2021/09/05 04:15:46;;;;;;;0.70;0.70;;;7.40;99.90;;;;;;5073624;28;20200;-71
2021/09/05 04:18:12;;;;;;;0.60;0.60;;;7.40;99.90;;;;;;5091876;28;20290;-71
2021/09/05 04:20:37;;;;;;;0.70;0.70;;;7.40;99.90;;;;;;5073953;28;20654;-71
2021/09/05 04:23:03;;;;;;;0.70;0.70;;;7.40;99.90;;;;;;5080565;28;20215;-72
2021/09/05 04:25:29;;;;;;;0.60;0.60;;;7.40;99.90;;;;;;5074464;28;20291;-71
2021/09/05 04:27:54;;;;;;;1.17;1.00;;;7.40;99.90;;;;;;5090780;28;20576;-71
2021/09/05 04:30:20;;;;;;;0.70;0.70;;;7.40;99.90;;;;;;5091619;28;20206;-72
2021/09/05 04:32:46;;;;;;;0.60;0.60;;;7.50;99.90;;;;;;5074719;28;20235;-71
2021/09/05 04:35:11;;;;;;;0.60;0.60;;;7.50;99.90;;;;;;5090430;28;20200;-72
2021/09/05 04:37:37;;;;;;;0.70;0.70;;;7.50;99.90;;;;;;5091626;28;20200;-72
2021/09/05 04:40:05;;;;;;;0.60;0.60;;;7.50;99.90;;;;;;5086728;28;20637;-72
2021/09/05 04:42:31;;;;;;;0.70;0.70;;;7.60;99.90;;;;;;5073172;28;20204;-72
2021/09/05 04:44:56;;;;;;;0.65;0.65;;;7.60;99.90;;;;;;5090489;28;20193;-73
2021/09/05 04:47:22;;;;;;;0.70;0.70;;;7.60;99.90;;;;;;5072311;28;20655;-72
2021/09/05 04:49:48;;;;;;;0.70;0.70;;;7.70;99.90;;;;;;5073228;28;20203;-75
2021/09/05 04:52:14;;;;;;;0.95;0.95;;;7.70;99.90;;;;;;5093640;28;20276;-72
2021/09/05 04:54:39;;;;;;;1.17;1.10;;;7.80;99.90;;;;;;5094639;28;20204;-71
2021/09/05 04:57:05;;;;;;;0.60;0.60;;;7.80;99.90;;;;;;5094779;28;20200;-71
2021/09/05 04:59:31;;;;;;;0.63;0.63;;;7.90;99.90;;;;;;5093991;28;20206;-72
2021/09/05 05:01:57;;;;;;;0.70;0.70;;;7.90;99.90;;;;;;5095222;28;20212;-72
2021/09/05 05:04:22;;;;;;;4.03;1.15;;;7.90;99.90;;;;;;5093840;28;20224;-71
2021/09/05 05:06:48;;;;;;;0.57;0.57;;;7.90;99.90;;;;;;5094154;28;20613;-71
2021/09/05 05:09:15;;;;;;;0.93;0.93;;;7.90;99.90;;;;;;5094097;28;20576;-71
2021/09/05 05:11:42;;;;;;;0.55;0.55;;;8.00;99.90;;;;;;5093826;28;20685;-71
2021/09/05 05:14:08;;;;;;;0.93;0.80;;;8.00;99.90;;;;;;5093903;28;20577;-71
2021/09/05 05:16:34;;;;;;;0.70;0.70;;;8.10;99.90;;;;;;5076624;28;20287;-71
2021/09/05 05:19:00;;;;;;;0.70;0.70;;;8.10;99.90;;;;;;5094875;28;20204;-71
2021/09/05 05:21:27;;;;;;;0.70;0.70;;;8.10;99.90;;;;;;5076458;28;20224;-71
2021/09/05 05:23:56;;;;;;;0.60;0.60;;;8.20;99.90;;;;;;5093905;28;20575;-71
2021/09/05 05:26:22;;;;;;;0.70;0.70;;;8.20;99.90;;;;;;5094604;28;20216;-72
2021/09/05 05:28:48;;;;;;;0.60;0.60;;;8.20;99.90;;;;;;5095032;28;20245;-71
2021/09/05 05:31:14;;;;;;;0.70;0.70;;;8.20;99.90;;;;;;5093646;28;20746;-71
2021/09/05 05:33:39;;;;;;;0.70;0.70;;;8.30;99.90;;;;;;5093401;28;20213;-71
2021/09/05 05:36:05;;;;;;;0.50;0.50;;;8.30;99.90;;;;;;5075672;28;20196;-71
2021/09/05 05:38:31;;;;;;;0.75;0.75;;;8.30;99.90;;;;;;5093735;28;20287;-72
2021/09/05 05:40:56;;;;;;;0.60;0.60;;;8.40;99.90;;;;;;5094654;28;20763;-72
2021/09/05 05:43:22;;;;;;;0.60;0.60;;;8.40;99.90;;;;;;5093215;28;20212;-71
2021/09/05 05:45:48;;;;;;;5.88;1.20;;;8.50;99.90;;;;;;5093264;28;20290;-71
2021/09/05 05:48:14;;;;;;;0.70;0.70;;;8.40;99.90;;;;;;5088082;28;20268;-71
2021/09/05 05:50:42;;;;;;;0.73;0.73;;;8.50;99.90;;;;;;5078524;28;20257;-71
2021/09/05 05:53:08;;;;;;;0.65;0.65;;;8.50;99.90;;;;;;5075377;28;20250;-72
2021/09/05 05:55:34;;;;;;;0.70;0.70;;;8.60;99.90;;;;;;5092993;28;20211;-71
2021/09/05 05:58:00;;;;;;;0.75;0.75;;;8.60;99.90;;;;;;5092937;28;20222;-71
2021/09/05 06:00:27;;;;;;;0.60;0.60;;;8.60;99.90;;;;;;5075769;28;20641;-71
2021/09/05 06:02:53;;;;;;;0.60;0.60;;;8.70;99.90;;;;;;5093634;28;20282;-71
2021/09/05 06:05:20;;;;;;;0.88;0.88;;;8.80;99.90;;;;;;5075370;28;20232;-72
2021/09/05 06:07:45;;;;;;;0.50;0.50;;;8.80;99.90;;;;;;5094306;28;20208;-71
2021/09/05 06:10:11;;;;;;;0.75;0.75;;;8.80;99.90;;;;;;5076044;28;20253;-71
2021/09/05 06:12:37;;;;;;;0.70;0.70;;;8.90;99.90;;;;;;5075564;28;20240;-71
2021/09/05 06:15:03;;;;;;;0.70;0.70;;;9.10;99.90;;;;;;5092687;28;20211;-71
2021/09/05 06:17:29;;;;;;;0.65;0.65;;;9.30;99.90;;;;;;5093848;28;20200;-71
2021/09/05 06:19:54;;;;;;;0.77;0.77;;;9.40;99.90;;;;;;5092734;28;20221;-72
2021/09/05 06:22:20;;;;;;;0.70;0.70;;;9.50;99.90;;;;;;5092331;28;20204;-72
2021/09/05 06:24:46;;;;;;;0.70;0.70;;;9.60;99.90;;;;;;5093243;28;20196;-72
2021/09/05 06:27:12;;;;;;;0.70;0.70;;;9.70;99.90;;;;;;5074590;28;20208;-71
2021/09/05 06:29:37;;;;;;;0.63;0.63;;;9.80;99.90;;;;;;5076615;28;20585;-71
2021/09/05 06:32:03;;;;;;;0.60;0.60;;;9.80;99.90;;;;;;5074749;28;20189;-71
2021/09/05 06:34:29;;;;;;;0.80;0.80;;;9.90;99.90;;;;;;5091546;28;20609;-71
2021/09/05 06:36:55;;;;;;;0.60;0.60;;;9.90;99.90;;;;;;5093500;28;20207;-72
2021/09/05 06:39:20;;;;;;;0.85;0.85;;;9.90;99.90;;;;;;5076806;28;20253;-72
2021/09/05 06:41:46;;;;;;;0.60;0.60;;;9.80;99.90;;;;;;5093581;28;20210;-71
2021/09/05 06:44:12;;;;;;;0.50;0.50;;;9.90;99.90;;;;;;5075010;28;20217;-73
2021/09/05 06:46:37;;;;;;;0.60;0.60;;;10.00;99.90;;;;;;5074713;28;20247;-73
2021/09/05 06:49:03;;;;;;;0.60;0.60;;;10.10;99.90;;;;;;5093318;28;20204;-72
2021/09/05 06:51:29;;;;;;;0.60;0.60;;;10.10;99.90;;;;;;5075309;28;20200;-72
2021/09/05 06:53:55;;;;;;;0.57;0.57;;;10.10;99.90;;;;;;5093271;28;20215;-72
2021/09/05 06:56:21;;;;;;;0.70;0.70;;;10.20;99.90;;;;;;5092094;28;20228;-73
2021/09/05 06:58:46;;;;;;;0.60;0.60;;;10.40;99.90;;;;;;5078257;28;20683;-73
2021/09/05 07:01:12;;;;;;;0.63;0.63;;;10.60;99.90;;;;;;5091824;28;20196;-72
2021/09/05 07:03:38;;;;;;;0.50;0.50;;;10.80;99.90;;;;;;5092237;28;20230;-73
2021/09/05 07:06:05;;;;;;;3.28;0.80;;;10.90;99.90;;;;;;5093093;28;20226;-72
2021/09/05 07:08:30;;;;;;;0.63;0.63;;;11.10;99.90;;;;;;5074511;28;20283;-72
2021/09/05 07:10:56;;;;;;;0.60;0.60;;;11.30;99.90;;;;;;5093312;28;20287;-73
2021/09/05 07:13:22;;;;;;;0.60;0.60;;;11.50;99.90;;;;;;5092082;28;20207;-72
2021/09/05 07:15:47;;;;;;;0.60;0.60;;;11.80;99.90;;;;;;5074669;28;20627;-72
2021/09/05 07:18:13;;;;;;;0.75;0.75;;;11.90;99.90;;;;;;5073984;28;20204;-73
2021/09/05 07:20:39;;;;;;;1.98;1.20;;;12.10;99.90;;;;;;5092025;28;20199;-72
2021/09/05 07:23:04;;;;;;;0.60;0.60;;;12.10;99.90;;;;;;5093010;28;20204;-72
2021/09/05 07:25:30;;;;;;;0.57;0.57;;;12.40;99.90;;;;;;5092879;28;20208;-72
2021/09/05 07:27:56;;;;;;;0.60;0.60;;;12.50;99.90;;;;;;5093868;28;20698;-73
2021/09/05 07:30:22;;;;;;;0.60;0.60;;;12.70;99.90;;;;;;5091809;28;20200;-72
2021/09/05 07:32:48;;;;;;;0.60;0.60;;;12.90;99.90;;;;;;5074909;28;20295;-72
2021/09/05 07:35:13;;;;;;;0.50;0.50;;;13.00;99.90;;;;;;5092749;28;20200;-71
2021/09/05 07:37:43;;;;;;;0.52;0.52;;;13.20;99.90;;;;;;5093770;28;20808;-72
2021/09/05 07:40:10;;;;;;;0.50;0.50;;;13.20;99.90;;;;;;5093713;28;20196;-72
2021/09/05 07:42:36;;;;;;;0.63;0.63;;;13.20;99.90;;;;;;5075122;28;20694;-72
2021/09/05 07:45:01;;;;;;;0.60;0.60;;;13.20;99.90;;;;;;5094028;28;20227;-71
2021/09/05 07:47:27;;;;;;;0.60;0.60;;;13.30;99.90;;;;;;5092897;28;20310;-71
2021/09/05 07:49:53;;;;;;;0.52;0.52;;;13.40;99.90;;;;;;5093000;28;20693;-72
2021/09/05 07:52:18;;;;;;;1.05;1.05;;;13.50;99.90;;;;;;5074072;28;20763;-72
2021/09/05 07:54:44;;;;;;;0.50;0.50;;;13.60;99.90;;;;;;5091508;28;20227;-72
2021/09/05 07:57:10;;;;;;;0.43;0.43;;;13.70;99.90;;;;;;5091326;28;20204;-71
2021/09/05 07:59:36;;;;;;;0.50;0.50;;;13.80;99.90;;;;;;5090150;28;20203;-71
2021/09/05 08:02:02;;;;;;;0.50;0.50;;;14.00;99.90;;;;;;5092364;28;20271;-71
2021/09/05 08:04:28;;;;;;;0.50;0.50;;;13.90;99.90;;;;;;5084920;28;20212;-71
2021/09/05 08:06:53;;;;;;;0.45;0.45;;;14.00;99.90;;;;;;5091256;28;20725;-71
2021/09/05 08:09:19;;;;;;;1.30;1.20;;;14.10;99.90;;;;;;5073779;28;20199;-71
2021/09/05 08:11:45;;;;;;;0.47;0.47;;;14.20;99.90;;;;;;5072196;28;20291;-71
2021/09/05 08:14:10;;;;;;;0.40;0.40;;;14.20;99.90;;;;;;5079864;28;20216;-72
2021/09/05 08:16:38;;;;;;;0.50;0.50;;;14.20;99.90;;;;;;5088662;28;20199;-71
2021/09/05 08:19:04;;;;;;;0.40;0.40;;;14.30;99.90;;;;;;5073714;28;20265;-72
2021/09/05 08:21:31;;;;;;;0.50;0.50;;;14.40;99.90;;;;;;5074775;28;20736;-71
2021/09/05 08:23:57;;;;;;;0.50;0.50;;;14.50;99.90;;;;;;5091771;28;20208;-71
2021/09/05 08:26:23;;;;;;;0.88;0.88;;;14.60;99.90;;;;;;5095524;28;20689;-71
2021/09/05 08:28:50;;;;;;;0.50;0.50;;;14.70;99.90;;;;;;5094536;28;20660;-71
2021/09/05 08:31:17;;;;;;;0.40;0.40;;;14.70;99.90;;;;;;5094476;28;20216;-70
2021/09/05 08:33:42;;;;;;;0.50;0.50;;;14.80;99.90;;;;;;5094424;28;20722;-70
2021/09/05 08:36:08;;;;;;;0.75;0.75;;;14.80;99.90;;;;;;5096164;28;20196;-71
2021/09/05 08:38:35;;;;;;;0.47;0.47;;;14.80;99.90;;;;;;5078932;28;20200;-71
2021/09/05 08:41:00;;;;;;;0.50;0.50;;;14.90;99.90;;;;;;5095409;28;20199;-72
2021/09/05 08:43:27;;;;;;;0.50;0.50;;;14.90;99.90;;;;;;5095277;28;20203;-70
2021/09/05 08:45:53;;;;;;;0.50;0.50;;;15.00;99.90;;;;;;5094556;28;20575;-70
2021/09/05 08:48:20;;;;;;;0.40;0.40;;;15.10;99.90;;;;;;5074971;28;20205;-70
2021/09/05 08:50:48;;;;;;;0.80;0.60;;;15.30;99.90;;;;;;5091962;28;20547;-70
2021/09/05 08:53:15;;;;;;;0.50;0.47;;;15.40;99.90;;;;;;5078501;28;20208;-70
2021/09/05 08:55:42;;;;;;;0.43;0.43;;;15.40;99.90;;;;;;5076851;28;20206;-70
2021/09/05 08:58:08;;;;;;;0.50;0.50;;;15.40;99.90;;;;;;5094347;28;20220;-70
2021/09/05 09:00:35;;;;;;;0.40;0.40;;;15.60;99.90;;;;;;5093973;28;20192;-71
2021/09/05 09:03:01;;;;;;;0.40;0.40;;;15.70;99.90;;;;;;5094298;28;20208;-70
2021/09/05 09:05:35;;;;;;;1.33;0.77;;;15.70;99.90;;;;;;5072159;28;20227;-71
2021/09/05 09:08:09;;;;;;;0.60;0.60;;;15.90;99.90;;;;;;5073898;28;20215;-70
2021/09/05 09:11:00;;;;;;;0.40;0.40;;;16.00;99.90;;;;;;5073485;28;20687;-71
2021/09/05 09:13:31;;;;;;;0.77;0.60;;;16.10;99.90;;;;;;5074809;28;20736;-71
2021/09/05 09:16:03;;;;;;;0.40;0.40;;;16.30;99.90;;;;;;5072163;28;20357;-71
2021/09/05 09:18:31;;;;;;;0.50;0.50;;;16.40;99.90;;;;;;5074782;28;20196;-71
2021/09/05 09:20:59;;;;;;;0.40;0.40;;;16.50;99.90;;;;;;5074295;28;20193;-71
2021/09/05 09:23:28;;;;;;;0.40;0.40;;;16.40;99.90;;;;;;5072351;28;20211;-71
2021/09/05 09:26:05;;;;;;;0.73;0.73;;;16.40;99.90;;;;;;5072426;28;20205;-71
2021/09/05 09:28:39;;;;;;;0.43;0.43;;;16.40;99.90;;;;;;5072603;28;20196;-71
2021/09/05 09:31:26;;;;;;;2.50;1.02;;;16.50;99.90;;;;;;5075342;28;20679;-70
2021/09/05 09:33:57;;;;;;;0.60;0.60;;;16.60;99.90;;;;;;5073492;28;20201;-70
2021/09/05 09:36:31;;;;;;;0.55;0.55;;;16.70;99.90;;;;;;5072369;28;20579;-71
2021/09/05 09:39:10;;;;;;;0.50;0.50;;;16.60;99.90;;;;;;5073751;28;20200;-72
2021/09/05 09:41:39;;;;;;;0.40;0.40;;;16.70;99.90;;;;;;5072850;28;20197;-74
2021/09/05 09:44:09;;;;;;;0.40;0.40;;;16.70;99.90;;;;;;5073777;28;20205;-74
2021/09/05 09:46:37;;;;;;;0.40;0.40;;;16.80;99.90;;;;;;5073690;28;20339;-73
2021/09/05 09:49:06;;;;;;;0.40;0.40;;;16.90;99.90;;;;;;5074841;28;20291;-73
2021/09/05 09:51:33;;;;;;;0.40;0.40;;;17.00;99.90;;;;;;5073064;28;20211;-73
2021/09/05 09:53:59;;;;;;;1.20;1.05;;;17.00;99.90;;;;;;5073449;28;20295;-74
2021/09/05 09:56:28;;;;;;;2.53;1.20;;;17.00;99.90;;;;;;5074237;28;20224;-73
2021/09/05 09:59:07;;;;;;;0.43;0.43;;;16.90;99.90;;;;;;5074843;28;20204;-73
2021/09/05 10:01:33;;;;;;;0.63;0.63;;;16.90;99.90;;;;;;5071520;28;20675;-73
2021/09/05 10:04:01;;;;;;;0.40;0.40;;;17.00;99.90;;;;;;5071878;28;20268;-73
2021/09/05 10:06:30;;;;;;;0.35;0.35;;;17.20;99.90;;;;;;5092631;28;20593;-73
2021/09/05 10:09:02;;;;;;;0.43;0.43;;;17.20;99.90;;;;;;5094766;28;20208;-73
2021/09/05 10:11:28;;;;;;;0.57;0.57;;;17.30;99.90;;;;;;5087726;28;20204;-72
2021/09/05 10:13:57;;;;;;;0.50;0.50;;;17.40;99.90;;;;;;5092958;28;20273;-72
2021/09/05 10:16:23;;;;;;;0.60;0.60;;;17.40;99.90;;;;;;5077324;28;20199;-72
2021/09/05 10:18:51;;;;;;;0.60;0.60;;;17.40;99.90;;;;;;5076474;28;20196;-73
2021/09/05 10:21:19;;;;;;;0.60;0.60;;;17.60;99.90;;;;;;5093529;28;20200;-73
2021/09/05 10:23:53;;;;;;;0.50;0.50;;;17.60;99.90;;;;;;5094034;28;20204;-73
2021/09/05 10:26:20;;;;;;;0.52;0.52;;;17.60;99.90;;;;;;5074621;28;20286;-73
2021/09/05 10:28:52;;;;;;;0.30;0.30;;;17.60;99.90;;;;;;5076199;28;20201;-72
2021/09/05 10:31:30;;;;;;;0.80;0.60;;;17.60;99.90;;;;;;5077231;28;20232;-72
2021/09/05 10:33:57;;;;;;;0.60;0.57;;;17.60;99.90;;;;;;5076599;28;20201;-73
2021/09/05 10:36:25;;;;;;;0.40;0.40;;;17.50;99.90;;;;;;5094327;28;20214;-75
2021/09/05 10:38:53;;;;;;;0.35;0.35;;;17.60;99.90;;;;;;5093310;28;20200;-73
2021/09/05 10:41:19;;;;;;;1.15;1.05;;;17.60;99.90;;;;;;5092764;28;20574;-73
2021/09/05 10:43:47;;;;;;;0.40;0.40;;;17.70;99.90;;;;;;5093894;28;20208;-73
2021/09/05 10:46:34;;;;;;;0.40;0.40;;;17.70;99.90;;;;;;5092933;28;20295;-73
2021/09/05 10:49:02;;;;;;;0.30;0.30;;;17.70;99.90;;;;;;5064753;28;20307;-73
2021/09/05 10:51:41;;;;;;;0.50;0.50;;;17.70;99.90;;;;;;5076433;28;20219;-74
2021/09/05 10:54:09;;;;;;;0.30;0.30;;;17.80;99.90;;;;;;5092772;28;20234;-73
2021/09/05 10:56:39;;;;;;;0.40;0.40;;;17.90;99.90;;;;;;5076361;28;20211;-77
2021/09/05 10:59:11;;;;;;;0.40;0.40;;;17.90;99.90;;;;;;5093282;28;20196;-73
2021/09/05 11:01:40;;;;;;;0.50;0.50;;;17.90;99.90;;;;;;5092854;28;20192;-73
2021/09/05 11:04:12;;;;;;;0.38;0.38;;;17.80;99.90;;;;;;5076051;28;20204;-74
2021/09/05 11:06:42;;;;;;;0.30;0.30;;;18.00;99.90;;;;;;5076101;28;20212;-73
2021/09/05 11:09:28;;;;;;;0.30;0.30;;;18.00;99.90;;;;;;5091962;28;20216;-73
2021/09/05 11:12:07;;;;;;;0.30;0.30;;;18.20;99.90;;;;;;5080714;28;20588;-72
2021/09/05 11:14:36;;;;;;;0.30;0.30;;;18.40;99.90;;;;;;5089090;28;20674;-73
2021/09/05 11:17:08;;;;;;;0.30;0.30;;;18.30;99.90;;;;;;5074482;28;20242;-72
2021/09/05 11:19:44;;;;;;;0.30;0.30;;;18.20;99.90;;;;;;5075830;28;20201;-73
2021/09/05 11:22:16;;;;;;;0.30;0.30;;;18.30;99.90;;;;;;5071553;28;20207;-73
2021/09/05 11:24:43;;;;;;;0.30;0.30;;;18.30;99.90;;;;;;5093487;28;20573;-73
2021/09/05 11:27:11;;;;;;;0.30;0.30;;;18.40;99.90;;;;;;5092643;28;20696;-73
2021/09/05 11:29:37;;;;;;;0.30;0.30;;;18.50;99.90;;;;;;5095120;28;20196;-72
2021/09/05 11:32:05;;;;;;;0.60;0.40;;;18.50;99.90;;;;;;5076577;28;20307;-73
2021/09/05 11:34:30;;;;;;;0.30;0.30;;;18.40;99.90;;;;;;5094339;28;20207;-72
2021/09/05 11:36:56;;;;;;;0.30;0.30;;;18.40;99.90;;;;;;5108056;28;20294;-73
2021/09/05 11:39:22;;;;;;;0.73;0.35;;;18.70;99.90;;;;;;5095885;28;20228;-73
2021/09/05 11:41:55;;;;;;;0.50;0.50;;;18.80;99.90;;;;;;5093444;28;20290;-73
2021/09/05 11:44:35;;;;;;;0.22;0.22;;;19.00;99.90;;;;;;5091666;28;20577;-72
2021/09/05 11:47:17;;;;;;;0.30;0.30;;;19.00;99.90;;;;;;5093398;28;20618;-73
2021/09/05 11:49:47;;;;;;;0.30;0.30;;;18.90;99.90;;;;;;5074073;28;20311;-73
2021/09/05 11:52:27;;;;;;;0.30;0.30;;;19.00;99.90;;;;;;5092451;28;20200;-72
2021/09/05 11:55:07;;;;;;;0.20;0.20;;;19.10;99.90;;;;;;5091353;28;20211;-73
2021/09/05 11:57:35;;;;;;;0.30;0.30;;;19.40;99.90;;;;;;5092193;28;20204;-73
2021/09/05 12:00:06;;;;;;;0.52;0.47;;;19.50;99.90;;;;;;5090638;28;20249;-72
2021/09/05 12:02:33;;;;;;;0.30;0.30;;;19.70;99.90;;;;;;5090733;28;20283;-73
2021/09/05 12:04:59;;;;;;;0.20;0.20;;;19.80;99.90;;;;;;5092008;28;20234;-72
2021/09/05 12:07:28;;;;;;;0.95;0.63;;;19.70;99.90;;;;;;5090892;28;20667;-73
2021/09/05 12:10:24;;;;;;;0.45;0.45;;;19.80;99.90;;;;;;5091017;28;20268;-73
2021/09/05 12:13:04;;;;;;;0.50;0.50;;;20.00;99.90;;;;;;5086480;28;20223;-73
2021/09/05 12:15:48;;;;;;;0.30;0.30;;;20.10;99.90;;;;;;5091796;28;20211;-73
2021/09/05 12:18:28;;;;;;;0.30;0.30;;;20.20;99.90;;;;;;5075113;28;20235;-72
2021/09/05 12:20:59;;;;;;;0.20;0.20;;;20.10;99.90;;;;;;5075478;28;20203;-73
2021/09/05 12:23:29;;;;;;;0.20;0.20;;;19.90;99.90;;;;;;5092860;28;20251;-73
2021/09/05 12:26:15;;;;;;;0.20;0.20;;;19.80;99.90;;;;;;5092109;28;20284;-72
2021/09/05 12:28:41;;;;;;;0.57;0.57;;;20.00;99.90;;;;;;5092580;28;20204;-77
2021/09/05 12:31:07;;;;;;;0.32;0.32;;;19.70;99.90;;;;;;5093286;28;20265;-77
2021/09/05 12:33:35;;;;;;;0.22;0.22;;;20.00;99.90;;;;;;5092178;28;20208;-76
2021/09/05 12:36:20;;;;;;;0.30;0.30;;;20.10;99.90;;;;;;5076292;28;20196;-76
2021/09/05 12:38:53;;;;;;;0.30;0.30;;;20.50;99.90;;;;;;5076015;28;20303;-75
2021/09/05 12:41:20;;;;;;;0.30;0.30;;;20.90;99.90;;;;;;5073677;28;20208;-76
2021/09/05 12:43:53;;;;;;;0.20;0.20;;;21.10;99.90;;;;;;5092700;28;20252;-79
2021/09/05 12:46:35;;;;;;;0.52;0.52;;;20.80;99.90;;;;;;5090934;28;20208;-78
2021/09/05 12:49:12;;;;;;;0.20;0.20;;;20.50;99.90;;;;;;5093290;28;20334;-76
2021/09/05 12:51:55;;;;;;;0.20;0.20;;;20.60;99.90;;;;;;5091855;28;20203;-78
2021/09/05 12:54:23;;;;;;;0.20;0.20;;;20.20;99.90;;;;;;5076676;28;20204;-77